sensor_id;sensor_type;location;lat;lon;timestamp;P1;durP1;ratioP1;P2;durP2;ratioP2
52858;SDS011;38721;53.098;6.596;2023-04-24T00:00:27;8.73;;;5.40;;
52858;SDS011;38721;53.098;6.596;2023-04-24T00:02:52;5.72;;;4.68;;
52858;SDS011;38721;53.098;6.596;2023-04-24T00:05:25;5.82;;;3.92;;
52858;SDS011;38721;53.098;6.596;2023-04-24T00:07:51;4.72;;;3.38;;
52858;SDS011;38721;53.098;6.596;2023-04-24T00:10:20;4.15;;;2.42;;
52858;SDS011;38721;53.098;6.596;2023-04-24T00:12:46;2.38;;;2.17;;
52858;SDS011;38721;53.098;6.596;2023-04-24T00:15:12;2.47;;;1.60;;
52858;SDS011;38721;53.098;6.596;2023-04-24T00:17:38;3.60;;;1.77;;
52858;SDS011;38721;53.098;6.596;2023-04-24T00:20:04;1.95;;;1.50;;
52858;SDS011;38721;53.098;6.596;2023-04-24T00:22:31;1.70;;;1.48;;
52858;SDS011;38721;53.098;6.596;2023-04-24T00:24:57;1.58;;;1.40;;
52858;SDS011;38721;53.098;6.596;2023-04-24T00:27:23;2.50;;;1.50;;
52858;SDS011;38721;53.098;6.596;2023-04-24T00:29:49;1.60;;;1.50;;
52858;SDS011;38721;53.098;6.596;2023-04-24T00:32:15;1.50;;;1.40;;
52858;SDS011;38721;53.098;6.596;2023-04-24T00:34:40;3.03;;;1.40;;
52858;SDS011;38721;53.098;6.596;2023-04-24T00:37:07;2.60;;;1.50;;
52858;SDS011;38721;53.098;6.596;2023-04-24T00:39:32;1.80;;;1.38;;
52858;SDS011;38721;53.098;6.596;2023-04-24T00:41:58;2.47;;;1.45;;
52858;SDS011;38721;53.098;6.596;2023-04-24T00:44:24;2.33;;;1.60;;
52858;SDS011;38721;53.098;6.596;2023-04-24T00:46:51;3.05;;;1.20;;
52858;SDS011;38721;53.098;6.596;2023-04-24T00:49:19;1.30;;;1.20;;
52858;SDS011;38721;53.098;6.596;2023-04-24T00:51:46;2.03;;;1.40;;
52858;SDS011;38721;53.098;6.596;2023-04-24T00:54:15;1.60;;;1.50;;
52858;SDS011;38721;53.098;6.596;2023-04-24T00:56:41;2.25;;;1.60;;
52858;SDS011;38721;53.098;6.596;2023-04-24T00:59:07;2.00;;;1.50;;
52858;SDS011;38721;53.098;6.596;2023-04-24T01:01:33;1.55;;;1.40;;
52858;SDS011;38721;53.098;6.596;2023-04-24T01:04:00;1.58;;;1.48;;
52858;SDS011;38721;53.098;6.596;2023-04-24T01:06:28;1.60;;;1.50;;
52858;SDS011;38721;53.098;6.596;2023-04-24T01:08:56;1.73;;;1.63;;
52858;SDS011;38721;53.098;6.596;2023-04-24T01:11:23;1.70;;;1.60;;
52858;SDS011;38721;53.098;6.596;2023-04-24T01:13:50;2.00;;;1.80;;
52858;SDS011;38721;53.098;6.596;2023-04-24T01:16:17;1.85;;;1.70;;
52858;SDS011;38721;53.098;6.596;2023-04-24T01:18:46;3.10;;;2.03;;
52858;SDS011;38721;53.098;6.596;2023-04-24T01:21:15;2.00;;;1.85;;
52858;SDS011;38721;53.098;6.596;2023-04-24T01:23:44;2.28;;;2.00;;
52858;SDS011;38721;53.098;6.596;2023-04-24T01:26:14;2.17;;;1.95;;
52858;SDS011;38721;53.098;6.596;2023-04-24T01:28:41;2.10;;;1.90;;
52858;SDS011;38721;53.098;6.596;2023-04-24T01:31:07;3.17;;;2.28;;
52858;SDS011;38721;53.098;6.596;2023-04-24T01:33:36;2.70;;;2.50;;
52858;SDS011;38721;53.098;6.596;2023-04-24T01:36:01;2.40;;;2.20;;
52858;SDS011;38721;53.098;6.596;2023-04-24T01:38:27;2.83;;;2.53;;
52858;SDS011;38721;53.098;6.596;2023-04-24T01:40:53;2.50;;;2.30;;
52858;SDS011;38721;53.098;6.596;2023-04-24T01:43:19;2.72;;;2.53;;
52858;SDS011;38721;53.098;6.596;2023-04-24T01:45:45;3.75;;;2.65;;
52858;SDS011;38721;53.098;6.596;2023-04-24T01:48:11;4.00;;;3.00;;
52858;SDS011;38721;53.098;6.596;2023-04-24T01:50:37;3.35;;;2.90;;
52858;SDS011;38721;53.098;6.596;2023-04-24T01:53:03;3.00;;;2.75;;
52858;SDS011;38721;53.098;6.596;2023-04-24T01:55:29;4.43;;;3.33;;
52858;SDS011;38721;53.098;6.596;2023-04-24T01:57:58;4.10;;;3.30;;
52858;SDS011;38721;53.098;6.596;2023-04-24T02:00:25;3.78;;;3.47;;
52858;SDS011;38721;53.098;6.596;2023-04-24T02:02:50;3.83;;;3.50;;
52858;SDS011;38721;53.098;6.596;2023-04-24T02:05:17;4.30;;;3.58;;
52858;SDS011;38721;53.098;6.596;2023-04-24T02:07:42;4.30;;;3.90;;
52858;SDS011;38721;53.098;6.596;2023-04-24T02:10:08;4.38;;;3.97;;
52858;SDS011;38721;53.098;6.596;2023-04-24T02:12:37;5.32;;;4.70;;
52858;SDS011;38721;53.098;6.596;2023-04-24T02:15:04;4.82;;;4.32;;
52858;SDS011;38721;53.098;6.596;2023-04-24T02:17:30;5.38;;;4.32;;
52858;SDS011;38721;53.098;6.596;2023-04-24T02:19:56;5.40;;;4.80;;
52858;SDS011;38721;53.098;6.596;2023-04-24T02:22:22;5.65;;;5.05;;
52858;SDS011;38721;53.098;6.596;2023-04-24T02:24:49;5.70;;;5.13;;
52858;SDS011;38721;53.098;6.596;2023-04-24T02:27:18;6.47;;;5.60;;
52858;SDS011;38721;53.098;6.596;2023-04-24T02:29:43;6.45;;;5.68;;
52858;SDS011;38721;53.098;6.596;2023-04-24T02:32:09;7.68;;;6.15;;
52858;SDS011;38721;53.098;6.596;2023-04-24T02:34:37;6.25;;;5.65;;
52858;SDS011;38721;53.098;6.596;2023-04-24T02:37:03;6.55;;;5.93;;
52858;SDS011;38721;53.098;6.596;2023-04-24T02:39:29;6.97;;;6.28;;
52858;SDS011;38721;53.098;6.596;2023-04-24T02:42:03;7.10;;;6.25;;
52858;SDS011;38721;53.098;6.596;2023-04-24T02:44:29;6.80;;;6.10;;
52858;SDS011;38721;53.098;6.596;2023-04-24T02:46:55;8.60;;;6.72;;
52858;SDS011;38721;53.098;6.596;2023-04-24T02:49:20;8.02;;;6.30;;
52858;SDS011;38721;53.098;6.596;2023-04-24T02:51:46;7.15;;;6.40;;
52858;SDS011;38721;53.098;6.596;2023-04-24T02:54:11;7.00;;;6.30;;
52858;SDS011;38721;53.098;6.596;2023-04-24T02:56:37;7.50;;;6.70;;
52858;SDS011;38721;53.098;6.596;2023-04-24T02:59:05;8.23;;;6.88;;
52858;SDS011;38721;53.098;6.596;2023-04-24T03:01:31;8.15;;;6.63;;
52858;SDS011;38721;53.098;6.596;2023-04-24T03:03:57;9.77;;;7.78;;
52858;SDS011;38721;53.098;6.596;2023-04-24T03:06:23;9.70;;;8.63;;
52858;SDS011;38721;53.098;6.596;2023-04-24T03:08:48;10.93;;;9.57;;
52858;SDS011;38721;53.098;6.596;2023-04-24T03:11:14;10.43;;;9.10;;
52858;SDS011;38721;53.098;6.596;2023-04-24T03:13:39;10.65;;;9.57;;
52858;SDS011;38721;53.098;6.596;2023-04-24T03:16:05;11.38;;;10.20;;
52858;SDS011;38721;53.098;6.596;2023-04-24T03:18:31;9.98;;;8.98;;
52858;SDS011;38721;53.098;6.596;2023-04-24T03:20:56;11.77;;;8.93;;
52858;SDS011;38721;53.098;6.596;2023-04-24T03:23:22;10.32;;;9.10;;
52858;SDS011;38721;53.098;6.596;2023-04-24T03:25:47;10.38;;;9.30;;
52858;SDS011;38721;53.098;6.596;2023-04-24T03:28:13;10.30;;;9.18;;
52858;SDS011;38721;53.098;6.596;2023-04-24T03:30:39;10.95;;;9.63;;
52858;SDS011;38721;53.098;6.596;2023-04-24T03:33:05;9.55;;;8.55;;
52858;SDS011;38721;53.098;6.596;2023-04-24T03:35:31;10.57;;;9.07;;
52858;SDS011;38721;53.098;6.596;2023-04-24T03:37:57;9.88;;;8.52;;
52858;SDS011;38721;53.098;6.596;2023-04-24T03:40:22;9.60;;;8.23;;
52858;SDS011;38721;53.098;6.596;2023-04-24T03:42:48;9.27;;;8.38;;
52858;SDS011;38721;53.098;6.596;2023-04-24T03:45:14;8.68;;;7.78;;
52858;SDS011;38721;53.098;6.596;2023-04-24T03:47:40;8.25;;;7.45;;
52858;SDS011;38721;53.098;6.596;2023-04-24T03:50:05;8.25;;;7.45;;
52858;SDS011;38721;53.098;6.596;2023-04-24T03:52:31;7.75;;;7.05;;
52858;SDS011;38721;53.098;6.596;2023-04-24T03:54:57;8.70;;;7.63;;
52858;SDS011;38721;53.098;6.596;2023-04-24T03:57:23;8.35;;;7.55;;
52858;SDS011;38721;53.098;6.596;2023-04-24T03:59:49;7.97;;;7.20;;
52858;SDS011;38721;53.098;6.596;2023-04-24T04:02:14;7.97;;;7.18;;
52858;SDS011;38721;53.098;6.596;2023-04-24T04:04:40;8.55;;;7.00;;
52858;SDS011;38721;53.098;6.596;2023-04-24T04:07:05;7.45;;;6.75;;
52858;SDS011;38721;53.098;6.596;2023-04-24T04:09:32;10.73;;;7.35;;
52858;SDS011;38721;53.098;6.596;2023-04-24T04:11:58;7.70;;;6.45;;
52858;SDS011;38721;53.098;6.596;2023-04-24T04:14:23;8.45;;;6.88;;
52858;SDS011;38721;53.098;6.596;2023-04-24T04:16:52;7.13;;;6.07;;
52858;SDS011;38721;53.098;6.596;2023-04-24T04:19:18;7.28;;;6.53;;
52858;SDS011;38721;53.098;6.596;2023-04-24T04:21:45;8.10;;;6.05;;
52858;SDS011;38721;53.098;6.596;2023-04-24T04:24:11;7.28;;;6.38;;
52858;SDS011;38721;53.098;6.596;2023-04-24T04:26:37;6.57;;;5.90;;
52858;SDS011;38721;53.098;6.596;2023-04-24T04:29:03;6.68;;;5.63;;
52858;SDS011;38721;53.098;6.596;2023-04-24T04:31:28;9.82;;;5.78;;
52858;SDS011;38721;53.098;6.596;2023-04-24T04:33:55;7.95;;;6.18;;
52858;SDS011;38721;53.098;6.596;2023-04-24T04:36:21;7.00;;;5.65;;
52858;SDS011;38721;53.098;6.596;2023-04-24T04:38:46;8.45;;;6.03;;
52858;SDS011;38721;53.098;6.596;2023-04-24T04:41:12;7.50;;;6.38;;
52858;SDS011;38721;53.098;6.596;2023-04-24T04:43:38;7.80;;;6.63;;
52858;SDS011;38721;53.098;6.596;2023-04-24T04:46:05;7.15;;;6.45;;
52858;SDS011;38721;53.098;6.596;2023-04-24T04:48:33;7.45;;;6.40;;
52858;SDS011;38721;53.098;6.596;2023-04-24T04:51:03;7.13;;;5.88;;
52858;SDS011;38721;53.098;6.596;2023-04-24T04:53:28;7.20;;;5.78;;
52858;SDS011;38721;53.098;6.596;2023-04-24T04:55:54;6.75;;;6.05;;
52858;SDS011;38721;53.098;6.596;2023-04-24T04:58:20;7.53;;;5.68;;
52858;SDS011;38721;53.098;6.596;2023-04-24T05:00:46;6.15;;;5.35;;
52858;SDS011;38721;53.098;6.596;2023-04-24T05:03:11;6.45;;;5.20;;
52858;SDS011;38721;53.098;6.596;2023-04-24T05:05:37;5.22;;;4.30;;
52858;SDS011;38721;53.098;6.596;2023-04-24T05:08:06;5.25;;;4.05;;
52858;SDS011;38721;53.098;6.596;2023-04-24T05:10:34;4.25;;;3.85;;
52858;SDS011;38721;53.098;6.596;2023-04-24T05:13:01;7.22;;;3.78;;
52858;SDS011;38721;53.098;6.596;2023-04-24T05:15:28;3.50;;;3.20;;
52858;SDS011;38721;53.098;6.596;2023-04-24T05:18:00;3.70;;;3.28;;
52858;SDS011;38721;53.098;6.596;2023-04-24T05:20:28;5.15;;;2.95;;
52858;SDS011;38721;53.098;6.596;2023-04-24T05:22:53;3.17;;;2.50;;
52858;SDS011;38721;53.098;6.596;2023-04-24T05:25:22;2.53;;;2.30;;
52858;SDS011;38721;53.098;6.596;2023-04-24T05:27:47;2.85;;;2.40;;
52858;SDS011;38721;53.098;6.596;2023-04-24T05:30:13;2.58;;;2.30;;
52858;SDS011;38721;53.098;6.596;2023-04-24T05:32:39;2.75;;;2.55;;
52858;SDS011;38721;53.098;6.596;2023-04-24T05:35:05;2.67;;;2.42;;
52858;SDS011;38721;53.098;6.596;2023-04-24T05:37:33;3.47;;;3.10;;
52858;SDS011;38721;53.098;6.596;2023-04-24T05:39:59;3.65;;;3.13;;
52858;SDS011;38721;53.098;6.596;2023-04-24T05:42:24;3.80;;;3.08;;
52858;SDS011;38721;53.098;6.596;2023-04-24T05:44:50;3.15;;;2.85;;
52858;SDS011;38721;53.098;6.596;2023-04-24T05:47:16;3.55;;;3.22;;
52858;SDS011;38721;53.098;6.596;2023-04-24T05:49:41;3.50;;;3.03;;
52858;SDS011;38721;53.098;6.596;2023-04-24T05:52:07;3.17;;;2.80;;
52858;SDS011;38721;53.098;6.596;2023-04-24T05:54:34;3.08;;;2.70;;
52858;SDS011;38721;53.098;6.596;2023-04-24T05:56:59;3.60;;;2.38;;
52858;SDS011;38721;53.098;6.596;2023-04-24T05:59:29;2.22;;;2.00;;
52858;SDS011;38721;53.098;6.596;2023-04-24T06:01:58;2.47;;;2.28;;
52858;SDS011;38721;53.098;6.596;2023-04-24T06:04:23;2.53;;;2.33;;
52858;SDS011;38721;53.098;6.596;2023-04-24T06:06:49;3.42;;;2.80;;
52858;SDS011;38721;53.098;6.596;2023-04-24T06:09:16;2.75;;;2.13;;
52858;SDS011;38721;53.098;6.596;2023-04-24T06:11:42;2.33;;;1.88;;
52858;SDS011;38721;53.098;6.596;2023-04-24T06:14:08;2.40;;;1.77;;
52858;SDS011;38721;53.098;6.596;2023-04-24T06:16:35;2.38;;;2.08;;
52858;SDS011;38721;53.098;6.596;2023-04-24T06:19:00;2.30;;;2.10;;
52858;SDS011;38721;53.098;6.596;2023-04-24T06:21:26;3.00;;;2.42;;
52858;SDS011;38721;53.098;6.596;2023-04-24T06:23:52;3.78;;;3.00;;
52858;SDS011;38721;53.098;6.596;2023-04-24T06:26:18;3.80;;;2.95;;
52858;SDS011;38721;53.098;6.596;2023-04-24T06:28:44;5.40;;;2.97;;
52858;SDS011;38721;53.098;6.596;2023-04-24T06:31:10;5.43;;;3.45;;
52858;SDS011;38721;53.098;6.596;2023-04-24T06:33:36;4.75;;;3.50;;
52858;SDS011;38721;53.098;6.596;2023-04-24T06:36:05;4.63;;;3.33;;
52858;SDS011;38721;53.098;6.596;2023-04-24T06:38:31;6.20;;;3.58;;
52858;SDS011;38721;53.098;6.596;2023-04-24T06:40:57;5.13;;;3.30;;
52858;SDS011;38721;53.098;6.596;2023-04-24T06:43:22;7.80;;;3.90;;
52858;SDS011;38721;53.098;6.596;2023-04-24T06:45:48;6.95;;;4.28;;
52858;SDS011;38721;53.098;6.596;2023-04-24T06:48:13;7.47;;;4.60;;
52858;SDS011;38721;53.098;6.596;2023-04-24T06:50:40;5.97;;;4.53;;
52858;SDS011;38721;53.098;6.596;2023-04-24T06:53:08;8.35;;;5.88;;
52858;SDS011;38721;53.098;6.596;2023-04-24T06:55:36;8.65;;;6.20;;
52858;SDS011;38721;53.098;6.596;2023-04-24T06:58:01;8.82;;;5.30;;
52858;SDS011;38721;53.098;6.596;2023-04-24T07:00:27;7.38;;;4.93;;
52858;SDS011;38721;53.098;6.596;2023-04-24T07:03:01;8.10;;;5.03;;
52858;SDS011;38721;53.098;6.596;2023-04-24T07:05:33;8.55;;;5.47;;
52858;SDS011;38721;53.098;6.596;2023-04-24T07:08:00;8.32;;;5.40;;
52858;SDS011;38721;53.098;6.596;2023-04-24T07:10:26;8.40;;;4.88;;
52858;SDS011;38721;53.098;6.596;2023-04-24T07:12:54;8.23;;;4.80;;
52858;SDS011;38721;53.098;6.596;2023-04-24T07:15:27;7.78;;;3.40;;
52858;SDS011;38721;53.098;6.596;2023-04-24T07:17:56;5.95;;;3.35;;
52858;SDS011;38721;53.098;6.596;2023-04-24T07:20:22;4.30;;;2.85;;
52858;SDS011;38721;53.098;6.596;2023-04-24T07:22:48;4.95;;;3.28;;
52858;SDS011;38721;53.098;6.596;2023-04-24T07:25:14;3.50;;;2.90;;
52858;SDS011;38721;53.098;6.596;2023-04-24T07:27:40;5.10;;;2.65;;
52858;SDS011;38721;53.098;6.596;2023-04-24T07:30:06;3.58;;;2.40;;
52858;SDS011;38721;53.098;6.596;2023-04-24T07:32:32;4.65;;;2.50;;
52858;SDS011;38721;53.098;6.596;2023-04-24T07:34:57;3.45;;;2.28;;
52858;SDS011;38721;53.098;6.596;2023-04-24T07:37:23;4.85;;;2.45;;
52858;SDS011;38721;53.098;6.596;2023-04-24T07:39:49;3.53;;;2.20;;
52858;SDS011;38721;53.098;6.596;2023-04-24T07:42:15;4.47;;;2.20;;
52858;SDS011;38721;53.098;6.596;2023-04-24T07:44:40;5.25;;;2.63;;
52858;SDS011;38721;53.098;6.596;2023-04-24T07:47:06;3.78;;;2.72;;
52858;SDS011;38721;53.098;6.596;2023-04-24T07:49:32;5.00;;;3.10;;
52858;SDS011;38721;53.098;6.596;2023-04-24T07:51:59;4.45;;;2.47;;
52858;SDS011;38721;53.098;6.596;2023-04-24T07:54:27;4.05;;;2.10;;
52858;SDS011;38721;53.098;6.596;2023-04-24T07:56:53;2.55;;;1.90;;
52858;SDS011;38721;53.098;6.596;2023-04-24T07:59:19;6.88;;;2.05;;
52858;SDS011;38721;53.098;6.596;2023-04-24T08:01:45;5.55;;;2.13;;
52858;SDS011;38721;53.098;6.596;2023-04-24T08:04:10;6.43;;;2.22;;
52858;SDS011;38721;53.098;6.596;2023-04-24T08:06:36;3.92;;;2.70;;
52858;SDS011;38721;53.098;6.596;2023-04-24T08:09:02;3.55;;;2.97;;
52858;SDS011;38721;53.098;6.596;2023-04-24T08:11:28;6.43;;;3.30;;
52858;SDS011;38721;53.098;6.596;2023-04-24T08:13:56;8.77;;;4.55;;
52858;SDS011;38721;53.098;6.596;2023-04-24T08:16:22;9.30;;;5.93;;
52858;SDS011;38721;53.098;6.596;2023-04-24T08:18:49;11.88;;;6.63;;
52858;SDS011;38721;53.098;6.596;2023-04-24T08:21:15;18.80;;;8.00;;
52858;SDS011;38721;53.098;6.596;2023-04-24T08:23:44;20.17;;;10.63;;
52858;SDS011;38721;53.098;6.596;2023-04-24T08:26:11;17.27;;;11.48;;
52858;SDS011;38721;53.098;6.596;2023-04-24T08:28:37;21.15;;;12.05;;
52858;SDS011;38721;53.098;6.596;2023-04-24T08:31:03;21.45;;;11.50;;
52858;SDS011;38721;53.098;6.596;2023-04-24T08:33:29;19.90;;;11.30;;
52858;SDS011;38721;53.098;6.596;2023-04-24T08:36:03;22.33;;;12.68;;
52858;SDS011;38721;53.098;6.596;2023-04-24T08:38:30;23.67;;;12.20;;
52858;SDS011;38721;53.098;6.596;2023-04-24T08:40:57;23.73;;;12.70;;
52858;SDS011;38721;53.098;6.596;2023-04-24T08:43:24;23.17;;;12.88;;
52858;SDS011;38721;53.098;6.596;2023-04-24T08:45:51;19.42;;;12.55;;
52858;SDS011;38721;53.098;6.596;2023-04-24T08:48:21;19.23;;;11.98;;
52858;SDS011;38721;53.098;6.596;2023-04-24T08:50:48;24.15;;;11.70;;
52858;SDS011;38721;53.098;6.596;2023-04-24T08:53:15;24.38;;;13.13;;
52858;SDS011;38721;53.098;6.596;2023-04-24T08:55:41;19.67;;;11.50;;
52858;SDS011;38721;53.098;6.596;2023-04-24T08:58:11;24.00;;;13.35;;
52858;SDS011;38721;53.098;6.596;2023-04-24T09:00:38;19.88;;;11.55;;
52858;SDS011;38721;53.098;6.596;2023-04-24T09:03:07;20.85;;;12.57;;
52858;SDS011;38721;53.098;6.596;2023-04-24T09:05:33;22.23;;;12.20;;
52858;SDS011;38721;53.098;6.596;2023-04-24T09:07:58;22.67;;;12.23;;
52858;SDS011;38721;53.098;6.596;2023-04-24T09:10:26;17.60;;;10.40;;
52858;SDS011;38721;53.098;6.596;2023-04-24T09:12:56;20.45;;;12.55;;
52858;SDS011;38721;53.098;6.596;2023-04-24T09:15:23;17.98;;;11.55;;
52858;SDS011;38721;53.098;6.596;2023-04-24T09:17:49;20.42;;;12.30;;
52858;SDS011;38721;53.098;6.596;2023-04-24T09:20:15;22.42;;;12.63;;
52858;SDS011;38721;53.098;6.596;2023-04-24T09:22:41;21.17;;;12.10;;
52858;SDS011;38721;53.098;6.596;2023-04-24T09:25:10;19.23;;;10.48;;
52858;SDS011;38721;53.098;6.596;2023-04-24T09:27:42;13.38;;;10.18;;
52858;SDS011;38721;53.098;6.596;2023-04-24T09:30:13;17.00;;;10.32;;
52858;SDS011;38721;53.098;6.596;2023-04-24T09:32:45;17.52;;;10.18;;
52858;SDS011;38721;53.098;6.596;2023-04-24T09:35:12;15.68;;;9.45;;
52858;SDS011;38721;53.098;6.596;2023-04-24T09:37:42;13.55;;;9.18;;
52858;SDS011;38721;53.098;6.596;2023-04-24T09:40:16;13.27;;;9.07;;
52858;SDS011;38721;53.098;6.596;2023-04-24T09:42:51;14.02;;;7.10;;
52858;SDS011;38721;53.098;6.596;2023-04-24T09:45:18;11.45;;;7.78;;
52858;SDS011;38721;53.098;6.596;2023-04-24T09:47:45;10.93;;;7.80;;
52858;SDS011;38721;53.098;6.596;2023-04-24T09:50:12;12.73;;;8.32;;
52858;SDS011;38721;53.098;6.596;2023-04-24T09:52:40;12.50;;;7.65;;
52858;SDS011;38721;53.098;6.596;2023-04-24T09:55:14;15.93;;;7.25;;
52858;SDS011;38721;53.098;6.596;2023-04-24T10:00:18;10.68;;;6.22;;
52858;SDS011;38721;53.098;6.596;2023-04-24T10:02:49;13.43;;;7.05;;
52858;SDS011;38721;53.098;6.596;2023-04-24T10:05:15;12.82;;;6.47;;
52858;SDS011;38721;53.098;6.596;2023-04-24T10:07:42;12.60;;;6.50;;
52858;SDS011;38721;53.098;6.596;2023-04-24T10:10:08;12.00;;;6.25;;
52858;SDS011;38721;53.098;6.596;2023-04-24T10:12:35;14.95;;;5.60;;
52858;SDS011;38721;53.098;6.596;2023-04-24T10:15:01;11.07;;;6.20;;
52858;SDS011;38721;53.098;6.596;2023-04-24T10:17:28;12.05;;;5.85;;
52858;SDS011;38721;53.098;6.596;2023-04-24T10:19:54;12.23;;;5.63;;
52858;SDS011;38721;53.098;6.596;2023-04-24T10:22:20;12.40;;;4.93;;
52858;SDS011;38721;53.098;6.596;2023-04-24T10:24:47;9.18;;;4.88;;
52858;SDS011;38721;53.098;6.596;2023-04-24T10:27:18;6.35;;;4.55;;
52858;SDS011;38721;53.098;6.596;2023-04-24T10:29:46;10.80;;;4.35;;
52858;SDS011;38721;53.098;6.596;2023-04-24T10:32:15;8.73;;;4.05;;
52858;SDS011;38721;53.098;6.596;2023-04-24T10:34:40;8.75;;;4.45;;
52858;SDS011;38721;53.098;6.596;2023-04-24T10:37:10;5.50;;;3.40;;
52858;SDS011;38721;53.098;6.596;2023-04-24T10:39:35;11.13;;;4.55;;
52858;SDS011;38721;53.098;6.596;2023-04-24T10:42:12;9.10;;;3.67;;
52858;SDS011;38721;53.098;6.596;2023-04-24T10:44:42;6.55;;;3.65;;
52858;SDS011;38721;53.098;6.596;2023-04-24T10:47:12;13.70;;;3.80;;
52858;SDS011;38721;53.098;6.596;2023-04-24T10:49:39;11.43;;;3.38;;
52858;SDS011;38721;53.098;6.596;2023-04-24T10:52:05;8.73;;;3.22;;
52858;SDS011;38721;53.098;6.596;2023-04-24T10:54:35;6.45;;;3.15;;
52858;SDS011;38721;53.098;6.596;2023-04-24T11:00:14;9.20;;;3.22;;
52858;SDS011;38721;53.098;6.596;2023-04-24T11:02:45;8.02;;;2.58;;
52858;SDS011;38721;53.098;6.596;2023-04-24T11:05:14;6.25;;;2.33;;
52858;SDS011;38721;53.098;6.596;2023-04-24T11:11:00;5.32;;;2.47;;
52858;SDS011;38721;53.098;6.596;2023-04-24T11:13:26;9.48;;;2.88;;
52858;SDS011;38721;53.098;6.596;2023-04-24T11:16:15;7.40;;;3.38;;
52858;SDS011;38721;53.098;6.596;2023-04-24T11:18:45;6.20;;;2.50;;
52858;SDS011;38721;53.098;6.596;2023-04-24T11:21:18;7.00;;;2.53;;
52858;SDS011;38721;53.098;6.596;2023-04-24T11:23:44;5.75;;;2.13;;
52858;SDS011;38721;53.098;6.596;2023-04-24T11:26:21;5.45;;;1.80;;
52858;SDS011;38721;53.098;6.596;2023-04-24T11:28:55;7.35;;;2.38;;
52858;SDS011;38721;53.098;6.596;2023-04-24T11:31:41;5.68;;;2.22;;
52858;SDS011;38721;53.098;6.596;2023-04-24T11:34:18;6.70;;;2.33;;
52858;SDS011;38721;53.098;6.596;2023-04-24T11:36:46;7.35;;;2.15;;
52858;SDS011;38721;53.098;6.596;2023-04-24T11:39:17;7.20;;;2.22;;
52858;SDS011;38721;53.098;6.596;2023-04-24T11:41:43;7.47;;;2.28;;
52858;SDS011;38721;53.098;6.596;2023-04-24T11:44:09;4.55;;;2.00;;
52858;SDS011;38721;53.098;6.596;2023-04-24T11:46:36;4.60;;;2.03;;
52858;SDS011;38721;53.098;6.596;2023-04-24T11:49:04;5.97;;;2.00;;
52858;SDS011;38721;53.098;6.596;2023-04-24T11:51:30;6.50;;;2.10;;
52858;SDS011;38721;53.098;6.596;2023-04-24T11:53:56;8.15;;;2.10;;
52858;SDS011;38721;53.098;6.596;2023-04-24T11:56:23;7.43;;;1.88;;
52858;SDS011;38721;53.098;6.596;2023-04-24T11:58:51;7.30;;;2.60;;
52858;SDS011;38721;53.098;6.596;2023-04-24T12:01:19;4.25;;;1.65;;
52858;SDS011;38721;53.098;6.596;2023-04-24T12:03:59;6.35;;;2.20;;
52858;SDS011;38721;53.098;6.596;2023-04-24T12:06:25;6.53;;;2.17;;
52858;SDS011;38721;53.098;6.596;2023-04-24T12:08:52;7.25;;;1.90;;
52858;SDS011;38721;53.098;6.596;2023-04-24T12:11:20;3.70;;;1.83;;
52858;SDS011;38721;53.098;6.596;2023-04-24T12:13:45;6.38;;;1.88;;
52858;SDS011;38721;53.098;6.596;2023-04-24T12:16:11;4.93;;;2.25;;
52858;SDS011;38721;53.098;6.596;2023-04-24T12:18:41;7.28;;;1.90;;
52858;SDS011;38721;53.098;6.596;2023-04-24T12:21:18;5.53;;;2.38;;
52858;SDS011;38721;53.098;6.596;2023-04-24T12:23:45;3.83;;;1.63;;
52858;SDS011;38721;53.098;6.596;2023-04-24T12:26:18;5.10;;;2.22;;
52858;SDS011;38721;53.098;6.596;2023-04-24T12:28:46;4.72;;;2.30;;
52858;SDS011;38721;53.098;6.596;2023-04-24T12:31:15;7.13;;;2.28;;
52858;SDS011;38721;53.098;6.596;2023-04-24T12:33:41;3.30;;;1.85;;
52858;SDS011;38721;53.098;6.596;2023-04-24T12:36:11;5.78;;;2.08;;
52858;SDS011;38721;53.098;6.596;2023-04-24T12:38:37;3.33;;;1.70;;
52858;SDS011;38721;53.098;6.596;2023-04-24T12:41:07;5.72;;;1.67;;
52858;SDS011;38721;53.098;6.596;2023-04-24T12:43:35;8.70;;;2.45;;
52858;SDS011;38721;53.098;6.596;2023-04-24T12:46:01;4.47;;;1.80;;
52858;SDS011;38721;53.098;6.596;2023-04-24T12:48:28;6.00;;;1.83;;
52858;SDS011;38721;53.098;6.596;2023-04-24T12:50:54;6.18;;;1.90;;
52858;SDS011;38721;53.098;6.596;2023-04-24T12:53:21;3.95;;;1.88;;
52858;SDS011;38721;53.098;6.596;2023-04-24T12:55:51;3.13;;;1.40;;
52858;SDS011;38721;53.098;6.596;2023-04-24T12:58:21;7.00;;;1.52;;
52858;SDS011;38721;53.098;6.596;2023-04-24T13:00:47;2.78;;;1.50;;
52858;SDS011;38721;53.098;6.596;2023-04-24T13:03:13;4.22;;;1.55;;
52858;SDS011;38721;53.098;6.596;2023-04-24T13:05:47;3.90;;;1.20;;
52858;SDS011;38721;53.098;6.596;2023-04-24T13:08:12;5.82;;;1.67;;
52858;SDS011;38721;53.098;6.596;2023-04-24T13:10:38;4.20;;;1.05;;
52858;SDS011;38721;53.098;6.596;2023-04-24T13:13:05;4.40;;;1.60;;
52858;SDS011;38721;53.098;6.596;2023-04-24T13:15:30;5.15;;;1.52;;
52858;SDS011;38721;53.098;6.596;2023-04-24T13:17:56;8.70;;;2.33;;
52858;SDS011;38721;53.098;6.596;2023-04-24T13:20:22;4.15;;;1.35;;
52858;SDS011;38721;53.098;6.596;2023-04-24T13:22:48;3.20;;;1.48;;
52858;SDS011;38721;53.098;6.596;2023-04-24T13:25:13;4.43;;;1.42;;
52858;SDS011;38721;53.098;6.596;2023-04-24T13:27:41;3.22;;;1.38;;
52858;SDS011;38721;53.098;6.596;2023-04-24T13:30:07;2.10;;;0.90;;
52858;SDS011;38721;53.098;6.596;2023-04-24T13:32:37;2.10;;;0.85;;
52858;SDS011;38721;53.098;6.596;2023-04-24T13:35:02;3.33;;;0.90;;
52858;SDS011;38721;53.098;6.596;2023-04-24T13:37:29;2.22;;;0.90;;
52858;SDS011;38721;53.098;6.596;2023-04-24T13:39:54;8.02;;;1.02;;
52858;SDS011;38721;53.098;6.596;2023-04-24T13:42:20;3.95;;;1.10;;
52858;SDS011;38721;53.098;6.596;2023-04-24T13:44:45;3.38;;;1.00;;
52858;SDS011;38721;53.098;6.596;2023-04-24T13:47:11;3.25;;;1.10;;
52858;SDS011;38721;53.098;6.596;2023-04-24T13:49:37;3.47;;;0.82;;
52858;SDS011;38721;53.098;6.596;2023-04-24T13:52:02;3.85;;;1.10;;
52858;SDS011;38721;53.098;6.596;2023-04-24T13:54:28;1.30;;;0.88;;
52858;SDS011;38721;53.098;6.596;2023-04-24T13:56:55;2.33;;;0.98;;
52858;SDS011;38721;53.098;6.596;2023-04-24T13:59:22;4.13;;;1.00;;
52858;SDS011;38721;53.098;6.596;2023-04-24T14:01:48;2.20;;;0.93;;
52858;SDS011;38721;53.098;6.596;2023-04-24T14:04:14;2.13;;;1.40;;
52858;SDS011;38721;53.098;6.596;2023-04-24T14:06:46;4.38;;;1.10;;
52858;SDS011;38721;53.098;6.596;2023-04-24T14:09:11;3.50;;;1.00;;
52858;SDS011;38721;53.098;6.596;2023-04-24T14:11:37;3.22;;;1.25;;
52858;SDS011;38721;53.098;6.596;2023-04-24T14:14:03;2.30;;;1.10;;
52858;SDS011;38721;53.098;6.596;2023-04-24T14:16:29;4.05;;;1.33;;
52858;SDS011;38721;53.098;6.596;2023-04-24T14:18:55;9.45;;;1.88;;
52858;SDS011;38721;53.098;6.596;2023-04-24T14:21:21;4.72;;;2.03;;
52858;SDS011;38721;53.098;6.596;2023-04-24T14:23:46;6.68;;;1.88;;
52858;SDS011;38721;53.098;6.596;2023-04-24T14:26:12;8.10;;;1.92;;
52858;SDS011;38721;53.098;6.596;2023-04-24T14:28:38;3.05;;;1.83;;
52858;SDS011;38721;53.098;6.596;2023-04-24T14:31:03;8.10;;;1.95;;
52858;SDS011;38721;53.098;6.596;2023-04-24T14:33:29;12.98;;;2.30;;
52858;SDS011;38721;53.098;6.596;2023-04-24T14:35:55;9.23;;;2.80;;
52858;SDS011;38721;53.098;6.596;2023-04-24T14:38:21;8.60;;;2.40;;
52858;SDS011;38721;53.098;6.596;2023-04-24T14:40:47;5.95;;;1.95;;
52858;SDS011;38721;53.098;6.596;2023-04-24T14:43:13;6.32;;;1.80;;
52858;SDS011;38721;53.098;6.596;2023-04-24T14:45:38;5.43;;;2.08;;
52858;SDS011;38721;53.098;6.596;2023-04-24T14:48:06;5.20;;;2.10;;
52858;SDS011;38721;53.098;6.596;2023-04-24T14:50:33;9.70;;;2.47;;